^^
Datos históricos de la estación: Murcia-Puente Tocinos
Diario Informe para Octubre 20, 2020 Unidades:  Ambas    Ingés   Métrico
Diario Semanal Mensual Anual
  Máxima: Mínima: Promedio:
Temperatura: 65.8 °F /  18.8 °C 57.6 °F /  14.2 °C 59.7 °F /  15.4 °C
Punto de rocio: 57.2 °F /  14 °C 53.4 °F /  11.9 °C 55 °F /  12.8 °C
Humedad: 87% 74% 84%
Velocidad viento: 4mph /  6.5km/h - 2.6mph /  4.2km/h
Racha viento: 7mph /  11.3km/h - -
Viento- - Sur
Presión: 30.1 in /  1017.8 hPa 30 in /  1015.2 hPa -
Precipitación: 0 in /  0.0 mm    
 
 
Tabla de datos para Octubre 20, 2020
Hora Temperatura Punto de rocio Presión Viento Velocidad viento Racha viento Humedad Intensidad lluvia(por hora) Nubes
00:49 61.3 °F /  16.3 °C 56.8 °F /  13.8 °C 30.1in /  1017.8hPa Este 2.4mph /  3.9km/h 2.3mph /  3.7km/h 85% 0in /  0.0mm
00:54 61.3 °F /  16.3 °C 56.8 °F /  13.8 °C 30.1in /  1017.8hPa Este 2.1mph /  3.4km/h 2.4mph /  3.9km/h 85% 0in /  0.0mm
00:59 61.3 °F /  16.3 °C 56.8 °F /  13.8 °C 30.1in /  1017.8hPa Calm   2.4mph /  3.9km/h 85% 0in /  0.0mm
01:04 61.3 °F /  16.3 °C 56.8 °F /  13.8 °C 30.1in /  1017.8hPa Este 0.2mph /  0.3km/h 3.5mph /  5.6km/h 85% 0in /  0.0mm
01:09 61.2 °F /  16.2 °C 56.7 °F /  13.7 °C 30.1in /  1017.8hPa Este 1.8mph /  2.9km/h 3.5mph /  5.6km/h 85% 0in /  0.0mm
01:14 61.2 °F /  16.2 °C 56.7 °F /  13.7 °C 30.1in /  1017.5hPa Este 1.8mph /  2.9km/h 4.6mph /  7.4km/h 85% 0in /  0.0mm
01:19 61.2 °F /  16.2 °C 56.3 °F /  13.5 °C 30.1in /  1017.5hPa Este 2mph /  3.2km/h 5mph /  8km/h 84% 0in /  0.0mm
01:24 61.2 °F /  16.2 °C 56.1 °F /  13.4 °C 30.1in /  1017.5hPa ESE 2.1mph /  3.3km/h 5mph /  8km/h 84% 0in /  0.0mm
01:29 61 °F /  16.1 °C 56.1 °F /  13.4 °C 30in /  1017.4hPa SSO 2.4mph /  3.9km/h 5mph /  8km/h 84% 0in /  0.0mm
01:34 61 °F /  16.1 °C 56.3 °F /  13.5 °C 30in /  1017.4hPa SSO 2.5mph /  4km/h 5.4mph /  8.7km/h 84.9% 0in /  0.0mm
01:39 61 °F /  16.1 °C 56.5 °F /  13.6 °C 30.1in /  1017.6hPa SSO 2.9mph /  4.7km/h 6mph /  9.7km/h 85% 0in /  0.0mm
01:44 61.2 °F /  16.2 °C 56.5 °F /  13.6 °C 30.1in /  1017.6hPa SSO 2.9mph /  4.7km/h 5.2mph /  8.4km/h 84.8% 0in /  0.0mm
01:49 61.2 °F /  16.2 °C 56.3 °F /  13.5 °C 30.1in /  1017.6hPa SSO 2.9mph /  4.7km/h 5mph /  8km/h 84% 0in /  0.0mm
01:54 61.2 °F /  16.2 °C 56.3 °F /  13.5 °C 30.1in /  1017.6hPa SSO 2.8mph /  4.5km/h 4mph /  6.4km/h 84% 0in /  0.0mm
01:59 61.2 °F /  16.2 °C 56.3 °F /  13.5 °C 30.1in /  1017.5hPa SSO 2mph /  3.2km/h 4.6mph /  7.4km/h 84% 0in /  0.0mm
02:04 61 °F /  16.1 °C 56.1 °F /  13.4 °C 30.1in /  1017.5hPa SSO 2.1mph /  3.4km/h 5mph /  8km/h 84% 0in /  0.0mm
02:09 61 °F /  16.1 °C 56.1 °F /  13.4 °C 30.1in /  1017.6hPa SSO 2.9mph /  4.7km/h 5mph /  8km/h 84% 0in /  0.0mm
02:14 61 °F /  16.1 °C 56.1 °F /  13.4 °C 30.1in /  1017.6hPa SSO 2.8mph /  4.5km/h 5mph /  8km/h 84% 0in /  0.0mm
02:19 61 °F /  16.1 °C 56.1 °F /  13.4 °C 30.1in /  1017.6hPa Sur 2.4mph /  3.9km/h 5.2mph /  8.4km/h 84% 0in /  0.0mm
02:24 61 °F /  16.1 °C 56.1 °F /  13.4 °C 30.1in /  1017.6hPa SSE 2.5mph /  4.1km/h 6.2mph /  10km/h 84% 0in /  0.0mm
02:29 61 °F /  16.1 °C 55.9 °F /  13.3 °C 30in /  1017.4hPa Sur 3.6mph /  5.8km/h 6mph /  9.7km/h 84% 0in /  0.0mm
02:34 60.6 °F /  15.9 °C 55.8 °F /  13.2 °C 30in /  1017.4hPa SSE 3.7mph /  5.9km/h 6.2mph /  10km/h 84% 0in /  0.0mm
02:39 60.6 °F /  15.9 °C 55.8 °F /  13.2 °C 30in /  1017.4hPa SSE 4mph /  6.4km/h 5.2mph /  8.4km/h 83.9% 0in /  0.0mm
02:44 60.4 °F /  15.8 °C 55.6 °F /  13.1 °C 30in /  1017.3hPa SSE 3.9mph /  6.3km/h 5mph /  8km/h 83.8% 0in /  0.0mm
02:49 60.4 °F /  15.8 °C 55.2 °F /  12.9 °C 30in /  1017.3hPa Sur 3.1mph /  5km/h 5.8mph /  9.3km/h 83% 0in /  0.0mm
02:54 60.3 °F /  15.7 °C 55 °F /  12.8 °C 30in /  1017.3hPa SSE 3mph /  4.9km/h 6mph /  9.7km/h 83% 0in /  0.0mm
02:59 60.3 °F /  15.7 °C 55.2 °F /  12.9 °C 30in /  1017.2hPa Sur 2.9mph /  4.7km/h 6mph /  9.7km/h 83.7% 0in /  0.0mm
03:04 60.3 °F /  15.7 °C 55.2 °F /  12.9 °C 30in /  1017.2hPa Sur 3mph /  4.9km/h 6mph /  9.7km/h 84% 0in /  0.0mm
03:09 60.1 °F /  15.6 °C 55.2 °F /  12.9 °C 30in /  1017.2hPa SSO 4mph /  6.4km/h 6mph /  9.7km/h 84% 0in /  0.0mm
03:14 60.1 °F /  15.6 °C 55.2 °F /  12.9 °C 30in /  1017.1hPa SSO 4mph /  6.4km/h 6.9mph /  11.1km/h 84% 0in /  0.0mm
03:19 60.1 °F /  15.6 °C 55.2 °F /  12.9 °C 30in /  1017.1hPa SO 3.6mph /  5.8km/h 7mph /  11.3km/h 84% 0in /  0.0mm
03:24 60.1 °F /  15.6 °C 55.2 °F /  12.9 °C 30in /  1017.1hPa OSO 3.4mph /  5.5km/h 5mph /  8km/h 84% 0in /  0.0mm
03:29 60.1 °F /  15.6 °C 55.4 °F /  13 °C 30in /  1017.0hPa OSO 2.4mph /  3.9km/h 4mph /  6.4km/h 84.4% 0in /  0.0mm
03:34 60.1 °F /  15.6 °C 55.6 °F /  13.1 °C 30in /  1017.0hPa SSO 2.4mph /  3.8km/h 4mph /  6.4km/h 85% 0in /  0.0mm
03:39 60.1 °F /  15.6 °C 55.6 °F /  13.1 °C 30in /  1017.0hPa SSO 2mph /  3.2km/h 4mph /  6.4km/h 85% 0in /  0.0mm
03:44 60.1 °F /  15.6 °C 55.6 °F /  13.1 °C 30in /  1016.9hPa SSO 2mph /  3.2km/h 4.6mph /  7.4km/h 85% 0in /  0.0mm
03:49 60.1 °F /  15.6 °C 55.4 °F /  13 °C 30in /  1016.9hPa SSE 2mph /  3.2km/h 5mph /  8km/h 84.7% 0in /  0.0mm
03:54 60.1 °F /  15.6 °C 55.2 °F /  12.9 °C 30in /  1016.9hPa SSE 2.1mph /  3.3km/h 5mph /  8km/h 84% 0in /  0.0mm
03:59 60.1 °F /  15.6 °C 55.2 °F /  12.9 °C 30in /  1016.6hPa SSE 2.4mph /  3.9km/h 3.6mph /  5.8km/h 84% 0in /  0.0mm
04:04 59.9 °F /  15.5 °C 55 °F /  12.8 °C 30in /  1016.6hPa SSE 2.3mph /  3.7km/h 4mph /  6.4km/h 84% 0in /  0.0mm
04:09 59.7 °F /  15.4 °C 54.9 °F /  12.7 °C 30in /  1016.6hPa SSE 1.8mph /  2.9km/h 3.5mph /  5.6km/h 84% 0in /  0.0mm
04:14 59.5 °F /  15.3 °C 54.9 °F /  12.7 °C 30in /  1016.4hPa SSE 1.6mph /  2.5km/h 3mph /  4.8km/h 84% 0in /  0.0mm
04:19 59.5 °F /  15.3 °C 54.7 °F /  12.6 °C 30in /  1016.4hPa Calm   2.9mph /  4.7km/h 84% 0in /  0.0mm
04:24 59.4 °F /  15.2 °C 54.5 °F /  12.5 °C 30in /  1016.4hPa Oeste 0.2mph /  0.3km/h 4mph /  6.4km/h 84% 0in /  0.0mm
04:29 59.2 °F /  15.1 °C 54.7 °F /  12.6 °C 30in /  1016.2hPa Oeste 1.8mph /  2.9km/h 5mph /  8km/h 84.9% 0in /  0.0mm
04:34 58.8 °F /  14.9 °C 54.3 °F /  12.4 °C 30in /  1016.2hPa Oeste 1.8mph /  2.9km/h 3.6mph /  5.8km/h 85% 0in /  0.0mm
04:39 58.6 °F /  14.8 °C 54.1 °F /  12.3 °C 30in /  1016.2hPa Oeste 2mph /  3.2km/h 4mph /  6.4km/h 85% 0in /  0.0mm
04:44 58.6 °F /  14.8 °C 54.1 °F /  12.3 °C 30in /  1016.0hPa OSO 2mph /  3.2km/h 4.7mph /  7.6km/h 85% 0in /  0.0mm
04:49 58.5 °F /  14.7 °C 54 °F /  12.2 °C 30in /  1016.0hPa OSO 2mph /  3.2km/h 5mph /  8km/h 85% 0in /  0.0mm
04:54 58.5 °F /  14.7 °C 54 °F /  12.2 °C 30in /  1016.1hPa OSO 2.1mph /  3.4km/h 5mph /  8km/h 85% 0in /  0.0mm
04:59 58.5 °F /  14.7 °C 54 °F /  12.2 °C 30in /  1016.1hPa SO 2.9mph /  4.7km/h 5mph /  8km/h 85% 0in /  0.0mm
05:04 58.5 °F /  14.7 °C 54.3 °F /  12.4 °C 30in /  1016.1hPa SO 2.7mph /  4.4km/h 5mph /  8km/h 85.8% 0in /  0.0mm
05:09 58.5 °F /  14.7 °C 54.1 °F /  12.3 °C 30in /  1016.1hPa SSE 1.8mph /  2.9km/h 5.2mph /  8.4km/h 85.6% 0in /  0.0mm
05:14 58.5 °F /  14.7 °C 54 °F /  12.2 °C 30in /  1016.0hPa SE 1.9mph /  3.1km/h 5.4mph /  8.7km/h 85% 0in /  0.0mm
05:19 58.3 °F /  14.6 °C 53.8 °F /  12.1 °C 30in /  1016.0hPa SE 2.9mph /  4.7km/h 6.9mph /  11.1km/h 85% 0in /  0.0mm
05:24 58.1 °F /  14.5 °C 53.6 °F /  12 °C 30in /  1016.0hPa SSE 3mph /  4.8km/h 7mph /  11.3km/h 85% 0in /  0.0mm
05:29 57.9 °F /  14.4 °C 53.4 °F /  11.9 °C 30in /  1015.9hPa Sur 3.6mph /  5.8km/h 6mph /  9.7km/h 85% 0in /  0.0mm
05:34 57.9 °F /  14.4 °C 53.4 °F /  11.9 °C 30in /  1015.9hPa Sur 3.6mph /  5.8km/h 6mph /  9.7km/h 85% 0in /  0.0mm
05:39 57.7 °F /  14.3 °C 53.6 °F /  12 °C 30in /  1015.9hPa SSO 3.6mph /  5.8km/h 5.8mph /  9.3km/h 85.9% 0in /  0.0mm
05:44 57.9 °F /  14.4 °C 53.8 °F /  12.1 °C 30in /  1015.7hPa SSO 3.5mph /  5.6km/h 6mph /  9.7km/h 86% 0in /  0.0mm
05:49 57.9 °F /  14.4 °C 53.8 °F /  12.1 °C 30in /  1015.7hPa SO 2.9mph /  4.7km/h 6mph /  9.7km/h 86% 0in /  0.0mm
05:54 57.9 °F /  14.4 °C 53.8 °F /  12.1 °C 30in /  1015.7hPa SO 2.9mph /  4.7km/h 5mph /  8km/h 86% 0in /  0.0mm
05:59 58.1 °F /  14.5 °C 54 °F /  12.2 °C 30in /  1015.5hPa SO 2.9mph /  4.7km/h 5.2mph /  8.4km/h 86% 0in /  0.0mm
06:04 58.3 °F /  14.6 °C 54.1 °F /  12.3 °C 30in /  1015.5hPa SO 2.9mph /  4.7km/h 5mph /  8km/h 86% 0in /  0.0mm
06:09 58.3 °F /  14.6 °C 54.1 °F /  12.3 °C 30in /  1015.5hPa SO 2.9mph /  4.7km/h 5mph /  8km/h 86% 0in /  0.0mm
06:14 58.3 °F /  14.6 °C 54.1 °F /  12.3 °C 30in /  1015.5hPa SO 2.8mph /  4.5km/h 5mph /  8km/h 86% 0in /  0.0mm
06:19 58.5 °F /  14.7 °C 54.3 °F /  12.4 °C 30in /  1015.5hPa SO 2.4mph /  3.9km/h 5mph /  8km/h 86% 0in /  0.0mm
06:24 58.5 °F /  14.7 °C 54.3 °F /  12.4 °C 30in /  1015.7hPa SO 2.4mph /  3.8km/h 3.6mph /  5.8km/h 86% 0in /  0.0mm
06:29 58.5 °F /  14.7 °C 54.3 °F /  12.4 °C 30in /  1015.7hPa SO 2mph /  3.2km/h 3.5mph /  5.6km/h 86% 0in /  0.0mm
06:34 58.5 °F /  14.7 °C 54.1 °F /  12.3 °C 30in /  1015.7hPa SO 2mph /  3.2km/h 4.6mph /  7.4km/h 86% 0in /  0.0mm
06:39 58.3 °F /  14.6 °C 54.1 °F /  12.3 °C 30in /  1015.7hPa SO 2mph /  3.2km/h 5mph /  8km/h 86% 0in /  0.0mm
06:44 58.3 °F /  14.6 °C 54 °F /  12.2 °C 30in /  1015.6hPa Sur 2mph /  3.2km/h 5mph /  8km/h 86% 0in /  0.0mm
06:49 57.9 °F /  14.4 °C 53.8 °F /  12.1 °C 30in /  1015.6hPa SE 2mph /  3.2km/h 5.8mph /  9.3km/h 86% 0in /  0.0mm
06:54 57.7 °F /  14.3 °C 53.6 °F /  12 °C 30in /  1015.6hPa SE 2.1mph /  3.4km/h 6mph /  9.7km/h 86% 0in /  0.0mm
06:59 57.7 °F /  14.3 °C 53.6 °F /  12 °C 30in /  1015.6hPa Sur 2.9mph /  4.7km/h 5.8mph /  9.3km/h 86% 0in /  0.0mm
07:04 57.7 °F /  14.3 °C 53.6 °F /  12 °C 30in /  1015.6hPa SSE 2.9mph /  4.7km/h 6mph /  9.7km/h 86% 0in /  0.0mm
07:09 57.7 °F /  14.3 °C 53.6 °F /  12 °C 30in /  1015.6hPa SSE 3.1mph /  5km/h 5mph /  8km/h 86% 0in /  0.0mm
07:14 57.7 °F /  14.3 °C 53.6 °F /  12 °C 30in /  1015.4hPa SSE 3mph /  4.8km/h 5mph /  8km/h 86% 0in /  0.0mm
07:19 57.7 °F /  14.3 °C 53.4 °F /  11.9 °C 30in /  1015.4hPa SSE 2mph /  3.2km/h 3.6mph /  5.8km/h 86% 0in /  0.0mm
07:24 57.6 °F /  14.2 °C 53.4 °F /  11.9 °C 30in /  1015.6hPa Sur 2.1mph /  3.4km/h 5.2mph /  8.4km/h 86% 0in /  0.0mm
07:29 57.7 °F /  14.3 °C 53.6 °F /  12 °C 30in /  1015.6hPa Sur 2.9mph /  4.7km/h 5mph /  8km/h 86% 0in /  0.0mm
07:34 57.7 °F /  14.3 °C 53.6 °F /  12 °C 30in /  1015.6hPa SSE 2.9mph /  4.7km/h 5.9mph /  9.5km/h 86% 0in /  0.0mm
07:39 57.9 °F /  14.4 °C 53.8 °F /  12.1 °C 30in /  1015.6hPa Sur 3.1mph /  5km/h 6.2mph /  10km/h 86% 0in /  0.0mm
07:44 57.9 °F /  14.4 °C 53.8 °F /  12.1 °C 30in /  1015.5hPa Sur 3.2mph /  5.1km/h 6mph /  9.7km/h 86% 0in /  0.0mm
07:49 57.9 °F /  14.4 °C 53.8 °F /  12.1 °C 30in /  1015.5hPa SSE 4mph /  6.4km/h 6.2mph /  10km/h 86% 0in /  0.0mm
07:54 58.1 °F /  14.5 °C 54 °F /  12.2 °C 30in /  1015.5hPa SE 4mph /  6.5km/h 6.4mph /  10.3km/h 86% 0in /  0.0mm
07:59 57.9 °F /  14.4 °C 53.4 °F /  11.9 °C 30in /  1015.4hPa SE 4mph /  6.4km/h 6.9mph /  11.1km/h 85.3% 0in /  0.0mm
08:04 57.7 °F /  14.3 °C 53.6 °F /  12 °C 30in /  1015.4hPa SSE 4mph /  6.4km/h 7mph /  11.3km/h 85.9% 0in /  0.0mm
08:09 57.7 °F /  14.3 °C 53.6 °F /  12 °C 30in /  1015.4hPa Sur 3.6mph /  5.8km/h 5mph /  8km/h 86% 0in /  0.0mm
08:14 57.7 °F /  14.3 °C 53.6 °F /  12 °C 30in /  1015.2hPa Sur 3.5mph /  5.7km/h 5mph /  8km/h 86% 0in /  0.0mm
08:19 57.7 °F /  14.3 °C 53.6 °F /  12 °C 30in /  1015.2hPa Sur 2.9mph /  4.7km/h 4.6mph /  7.4km/h 86% 0in /  0.0mm
08:24 57.9 °F /  14.4 °C 54 °F /  12.2 °C 30in /  1015.3hPa Sur 2.8mph /  4.5km/h 4mph /  6.4km/h 86.7% 0in /  0.0mm
08:29 58.1 °F /  14.5 °C 54.1 °F /  12.3 °C 30in /  1015.3hPa SO 2mph /  3.2km/h 3.5mph /  5.6km/h 87% 0in /  0.0mm
08:34 58.1 °F /  14.5 °C 54 °F /  12.2 °C 30in /  1015.3hPa ONO 2mph /  3.2km/h 3.5mph /  5.6km/h 86.1% 0in /  0.0mm
08:39 58.3 °F /  14.6 °C 54.1 °F /  12.3 °C 30in /  1015.4hPa Oeste 1.8mph /  2.9km/h 4.7mph /  7.6km/h 86% 0in /  0.0mm
08:44 58.5 °F /  14.7 °C 54.3 °F /  12.4 °C 30in /  1015.4hPa SO 1.9mph /  3.1km/h 5mph /  8km/h 86% 0in /  0.0mm
08:49 58.6 °F /  14.8 °C 54.5 °F /  12.5 °C 30in /  1015.4hPa SSO 2.9mph /  4.7km/h 5mph /  8km/h 86% 0in /  0.0mm
08:54 58.8 °F /  14.9 °C 54.5 °F /  12.5 °C 30in /  1015.5hPa SSO 2.9mph /  4.6km/h 5mph /  8km/h 86% 0in /  0.0mm
08:59 59 °F /  15 °C 54.9 °F /  12.7 °C 30in /  1015.5hPa Sur 2.4mph /  3.9km/h 5.2mph /  8.4km/h 86% 0in /  0.0mm
09:04 59.4 °F /  15.2 °C 55 °F /  12.8 °C 30in /  1015.5hPa SSO 2.5mph /  4km/h 5.4mph /  8.7km/h 85.9% 0in /  0.0mm
09:09 59.5 °F /  15.3 °C 55 °F /  12.8 °C 30in /  1015.7hPa SO 2.9mph /  4.7km/h 6.2mph /  10km/h 85% 0in /  0.0mm
09:14 59.7 °F /  15.4 °C 55.2 °F /  12.9 °C 30in /  1015.7hPa SO 2.9mph /  4.7km/h 6mph /  9.7km/h 84.6% 0in /  0.0mm
09:19 60.3 °F /  15.7 °C 55.2 °F /  12.9 °C 30in /  1015.7hPa SSO 3.1mph /  5km/h 5mph /  8km/h 84% 0in /  0.0mm
09:24 60.4 °F /  15.8 °C 55.2 °F /  12.9 °C 30in /  1015.7hPa SSE 3mph /  4.8km/h 5mph /  8km/h 83.1% 0in /  0.0mm
09:29 60.8 °F /  16 °C 55.4 °F /  13 °C 30in /  1015.6hPa SE 2.4mph /  3.9km/h 5.2mph /  8.4km/h 82.5% 0in /  0.0mm
09:34 61 °F /  16.1 °C 55.4 °F /  13 °C 30in /  1015.6hPa ESE 2.5mph /  4km/h 5.9mph /  9.5km/h 82% 0in /  0.0mm
09:39 61.2 °F /  16.2 °C 55.6 °F /  13.1 °C 30in /  1015.6hPa SE 3.1mph /  5km/h 6.2mph /  10km/h 81.8% 0in /  0.0mm
09:44 61.3 °F /  16.3 °C 55.4 °F /  13 °C 30in /  1015.6hPa SE 3.2mph /  5.1km/h 6mph /  9.7km/h 81% 0in /  0.0mm
09:49 61.3 °F /  16.3 °C 55.6 °F /  13.1 °C 30in /  1015.6hPa SE 3.6mph /  5.8km/h 5mph /  8km/h 81% 0in /  0.0mm
09:54 61.7 °F /  16.5 °C 55.6 °F /  13.1 °C 30in /  1015.8hPa Sur 3.5mph /  5.6km/h 5.2mph /  8.4km/h 80.5% 0in /  0.0mm
09:59 62.1 °F /  16.7 °C 55.8 °F /  13.2 °C 30in /  1015.8hPa SSE 2.9mph /  4.7km/h 5mph /  8km/h 80.1% 0in /  0.0mm
10:04 62.4 °F /  16.9 °C 56.1 °F /  13.4 °C 30in /  1015.8hPa SE 2.7mph /  4.4km/h 5mph /  8km/h 80% 0in /  0.0mm
10:09 63.1 °F /  17.3 °C 56.5 °F /  13.6 °C 30in /  1015.8hPa SE 2mph /  3.2km/h 4mph /  6.4km/h 79.1% 0in /  0.0mm
10:14 63.7 °F /  17.6 °C 56.5 °F /  13.6 °C 30in /  1015.6hPa SSE 2mph /  3.2km/h 4.6mph /  7.4km/h 77.3% 0in /  0.0mm
10:19 63.9 °F /  17.7 °C 56.5 °F /  13.6 °C 30in /  1015.6hPa ONO 2mph /  3.2km/h 5mph /  8km/h 76.9% 0in /  0.0mm
10:24 64.4 °F /  18 °C 57 °F /  13.9 °C 30in /  1015.6hPa NO 2mph /  3.2km/h 5mph /  8km/h 76.7% 0in /  0.0mm
10:29 65.1 °F /  18.4 °C 57 °F /  13.9 °C 30in /  1015.6hPa SSE 1.8mph /  2.9km/h 4.6mph /  7.4km/h 75% 0in /  0.0mm
10:34 65.5 °F /  18.6 °C 57 °F /  13.9 °C 30in /  1015.6hPa OSO 1.9mph /  3km/h 5mph /  8km/h 74% 0in /  0.0mm
10:39 65.7 °F /  18.7 °C 57.2 °F /  14 °C 30in /  1015.7hPa OSO 2.4mph /  3.9km/h 4mph /  6.4km/h 74.2% 0in /  0.0mm
10:44 65.8 °F /  18.8 °C 57.2 °F /  14 °C 30in /  1015.7hPa SO 2.4mph /  3.8km/h 5.2mph /  8.4km/h 74% 0in /  0.0mm
Murcia-Puente Tocinos, España
Compliments of Weather Underground - 2 mb

La estación de MeteoMurcia.com, publica sus datos en los siguientes proyectos:

Weather Underground PWS IMURCIAP2 Meteoclimatic www.awekas.at

W3Counter
Web Analytics